sensor_id;sensor_type;location;lat;lon;timestamp;P1;durP1;ratioP1;P2;durP2;ratioP2
21657;SDS011;10990;48.174;9.782;2023-02-15T00:01:55;58.33;;;14.70;;
21657;SDS011;10990;48.174;9.782;2023-02-15T00:04:24;42.60;;;14.70;;
21657;SDS011;10990;48.174;9.782;2023-02-15T00:07:13;59.23;;;14.57;;
21657;SDS011;10990;48.174;9.782;2023-02-15T00:09:41;49.20;;;14.23;;
21657;SDS011;10990;48.174;9.782;2023-02-15T00:12:08;59.83;;;14.93;;
21657;SDS011;10990;48.174;9.782;2023-02-15T00:14:35;65.03;;;14.23;;
21657;SDS011;10990;48.174;9.782;2023-02-15T00:17:02;60.00;;;14.43;;
21657;SDS011;10990;48.174;9.782;2023-02-15T00:19:28;118.00;;;17.50;;
21657;SDS011;10990;48.174;9.782;2023-02-15T00:21:55;45.33;;;14.93;;
21657;SDS011;10990;48.174;9.782;2023-02-15T00:24:23;39.07;;;14.00;;
21657;SDS011;10990;48.174;9.782;2023-02-15T00:26:50;42.93;;;14.00;;
21657;SDS011;10990;48.174;9.782;2023-02-15T00:29:17;37.63;;;13.30;;
21657;SDS011;10990;48.174;9.782;2023-02-15T00:31:45;77.20;;;17.50;;
21657;SDS011;10990;48.174;9.782;2023-02-15T00:34:12;47.40;;;14.70;;
21657;SDS011;10990;48.174;9.782;2023-02-15T00:36:41;44.83;;;13.73;;
21657;SDS011;10990;48.174;9.782;2023-02-15T00:39:09;92.57;;;16.13;;
21657;SDS011;10990;48.174;9.782;2023-02-15T00:41:39;49.30;;;13.93;;
21657;SDS011;10990;48.174;9.782;2023-02-15T00:44:06;38.27;;;12.90;;
21657;SDS011;10990;48.174;9.782;2023-02-15T00:46:33;60.87;;;14.33;;
21657;SDS011;10990;48.174;9.782;2023-02-15T00:49:01;89.73;;;16.60;;
21657;SDS011;10990;48.174;9.782;2023-02-15T00:51:28;62.57;;;15.50;;
21657;SDS011;10990;48.174;9.782;2023-02-15T00:53:55;52.77;;;15.17;;
21657;SDS011;10990;48.174;9.782;2023-02-15T00:56:21;42.83;;;14.50;;
21657;SDS011;10990;48.174;9.782;2023-02-15T00:58:50;84.57;;;16.73;;
21657;SDS011;10990;48.174;9.782;2023-02-15T01:01:17;34.30;;;13.63;;
21657;SDS011;10990;48.174;9.782;2023-02-15T01:03:45;43.23;;;13.13;;
21657;SDS011;10990;48.174;9.782;2023-02-15T01:06:13;42.73;;;13.83;;
21657;SDS011;10990;48.174;9.782;2023-02-15T01:08:41;64.40;;;14.90;;
21657;SDS011;10990;48.174;9.782;2023-02-15T01:11:10;47.93;;;13.90;;
21657;SDS011;10990;48.174;9.782;2023-02-15T01:13:38;36.53;;;13.40;;
21657;SDS011;10990;48.174;9.782;2023-02-15T01:16:06;87.13;;;15.83;;
21657;SDS011;10990;48.174;9.782;2023-02-15T01:18:33;43.40;;;13.73;;
21657;SDS011;10990;48.174;9.782;2023-02-15T01:21:08;109.67;;;17.17;;
21657;SDS011;10990;48.174;9.782;2023-02-15T01:23:35;140.97;;;18.50;;
21657;SDS011;10990;48.174;9.782;2023-02-15T01:26:02;73.33;;;14.60;;
21657;SDS011;10990;48.174;9.782;2023-02-15T01:28:29;113.83;;;16.70;;
21657;SDS011;10990;48.174;9.782;2023-02-15T01:30:56;58.10;;;13.73;;
21657;SDS011;10990;48.174;9.782;2023-02-15T01:33:25;50.87;;;12.90;;
21657;SDS011;10990;48.174;9.782;2023-02-15T01:35:55;56.27;;;12.37;;
21657;SDS011;10990;48.174;9.782;2023-02-15T01:38:23;27.60;;;10.47;;
21657;SDS011;10990;48.174;9.782;2023-02-15T01:40:50;26.17;;;10.33;;
21657;SDS011;10990;48.174;9.782;2023-02-15T01:43:17;29.40;;;10.83;;
21657;SDS011;10990;48.174;9.782;2023-02-15T01:45:44;52.10;;;10.70;;
21657;SDS011;10990;48.174;9.782;2023-02-15T01:48:17;29.57;;;9.73;;
21657;SDS011;10990;48.174;9.782;2023-02-15T01:50:49;37.67;;;10.23;;
21657;SDS011;10990;48.174;9.782;2023-02-15T01:53:21;66.60;;;12.60;;
21657;SDS011;10990;48.174;9.782;2023-02-15T01:55:52;69.20;;;13.97;;
21657;SDS011;10990;48.174;9.782;2023-02-15T01:58:22;35.30;;;12.10;;
21657;SDS011;10990;48.174;9.782;2023-02-15T02:00:51;53.37;;;12.93;;
21657;SDS011;10990;48.174;9.782;2023-02-15T02:03:18;17.20;;;9.80;;
21657;SDS011;10990;48.174;9.782;2023-02-15T02:05:57;69.63;;;12.00;;
21657;SDS011;10990;48.174;9.782;2023-02-15T02:08:23;88.33;;;14.47;;
21657;SDS011;10990;48.174;9.782;2023-02-15T02:10:52;25.30;;;10.03;;
21657;SDS011;10990;48.174;9.782;2023-02-15T02:13:19;45.43;;;11.83;;
21657;SDS011;10990;48.174;9.782;2023-02-15T02:15:47;66.57;;;11.87;;
21657;SDS011;10990;48.174;9.782;2023-02-15T02:18:22;40.23;;;11.10;;
21657;SDS011;10990;48.174;9.782;2023-02-15T02:21:19;24.33;;;9.57;;
21657;SDS011;10990;48.174;9.782;2023-02-15T02:24:23;35.00;;;10.80;;
21657;SDS011;10990;48.174;9.782;2023-02-15T02:27:26;42.10;;;11.83;;
21657;SDS011;10990;48.174;9.782;2023-02-15T02:33:21;90.77;;;15.43;;
21657;SDS011;10990;48.174;9.782;2023-02-15T02:36:06;68.33;;;14.83;;
21657;SDS011;10990;48.174;9.782;2023-02-15T02:38:44;28.47;;;10.97;;
21657;SDS011;10990;48.174;9.782;2023-02-15T02:41:21;52.17;;;11.90;;
21657;SDS011;10990;48.174;9.782;2023-02-15T02:43:59;32.63;;;11.27;;
21657;SDS011;10990;48.174;9.782;2023-02-15T02:46:37;32.00;;;11.70;;
21657;SDS011;10990;48.174;9.782;2023-02-15T02:49:12;37.00;;;12.43;;
21657;SDS011;10990;48.174;9.782;2023-02-15T02:51:39;31.40;;;11.50;;
21657;SDS011;10990;48.174;9.782;2023-02-15T02:54:07;61.13;;;13.00;;
21657;SDS011;10990;48.174;9.782;2023-02-15T02:56:36;33.20;;;11.20;;
21657;SDS011;10990;48.174;9.782;2023-02-15T02:59:07;43.67;;;11.93;;
21657;SDS011;10990;48.174;9.782;2023-02-15T03:01:39;22.27;;;10.70;;
21657;SDS011;10990;48.174;9.782;2023-02-15T03:04:11;22.93;;;11.23;;
21657;SDS011;10990;48.174;9.782;2023-02-15T03:06:46;70.97;;;14.00;;
21657;SDS011;10990;48.174;9.782;2023-02-15T03:09:18;26.07;;;11.00;;
21657;SDS011;10990;48.174;9.782;2023-02-15T03:12:00;20.90;;;10.33;;
21657;SDS011;10990;48.174;9.782;2023-02-15T03:14:29;35.00;;;11.33;;
21657;SDS011;10990;48.174;9.782;2023-02-15T03:16:56;55.73;;;12.83;;
21657;SDS011;10990;48.174;9.782;2023-02-15T03:19:26;28.23;;;11.60;;
21657;SDS011;10990;48.174;9.782;2023-02-15T03:21:56;49.93;;;13.13;;
21657;SDS011;10990;48.174;9.782;2023-02-15T03:24:34;32.60;;;11.67;;
21657;SDS011;10990;48.174;9.782;2023-02-15T03:27:06;31.03;;;11.20;;
21657;SDS011;10990;48.174;9.782;2023-02-15T03:29:35;38.17;;;12.20;;
21657;SDS011;10990;48.174;9.782;2023-02-15T03:32:04;92.47;;;13.97;;
21657;SDS011;10990;48.174;9.782;2023-02-15T03:34:35;95.23;;;14.33;;
21657;SDS011;10990;48.174;9.782;2023-02-15T03:37:04;31.57;;;11.90;;
21657;SDS011;10990;48.174;9.782;2023-02-15T03:39:37;26.70;;;10.67;;
21657;SDS011;10990;48.174;9.782;2023-02-15T03:42:09;26.33;;;10.93;;
21657;SDS011;10990;48.174;9.782;2023-02-15T03:44:41;45.57;;;12.93;;
21657;SDS011;10990;48.174;9.782;2023-02-15T03:47:15;37.60;;;11.23;;
21657;SDS011;10990;48.174;9.782;2023-02-15T03:49:47;27.83;;;11.37;;
21657;SDS011;10990;48.174;9.782;2023-02-15T03:52:19;27.73;;;10.97;;
21657;SDS011;10990;48.174;9.782;2023-02-15T03:54:47;21.60;;;10.37;;
21657;SDS011;10990;48.174;9.782;2023-02-15T03:57:17;32.87;;;10.70;;
21657;SDS011;10990;48.174;9.782;2023-02-15T04:00:04;25.93;;;10.73;;
21657;SDS011;10990;48.174;9.782;2023-02-15T04:03:06;43.90;;;11.70;;
21657;SDS011;10990;48.174;9.782;2023-02-15T04:05:39;28.50;;;11.70;;
21657;SDS011;10990;48.174;9.782;2023-02-15T04:08:05;57.97;;;13.20;;
21657;SDS011;10990;48.174;9.782;2023-02-15T04:10:33;36.00;;;10.97;;
21657;SDS011;10990;48.174;9.782;2023-02-15T04:13:17;30.47;;;11.10;;
21657;SDS011;10990;48.174;9.782;2023-02-15T04:15:44;39.53;;;11.00;;
21657;SDS011;10990;48.174;9.782;2023-02-15T04:18:28;18.03;;;9.50;;
21657;SDS011;10990;48.174;9.782;2023-02-15T04:21:14;34.30;;;11.60;;
21657;SDS011;10990;48.174;9.782;2023-02-15T04:23:58;23.70;;;9.60;;
21657;SDS011;10990;48.174;9.782;2023-02-15T04:26:42;65.73;;;11.97;;
21657;SDS011;10990;48.174;9.782;2023-02-15T04:29:09;24.03;;;9.53;;
21657;SDS011;10990;48.174;9.782;2023-02-15T04:31:36;34.03;;;11.10;;
21657;SDS011;10990;48.174;9.782;2023-02-15T04:34:02;32.03;;;10.47;;
21657;SDS011;10990;48.174;9.782;2023-02-15T04:36:30;24.70;;;9.67;;
21657;SDS011;10990;48.174;9.782;2023-02-15T04:38:57;29.07;;;10.23;;
21657;SDS011;10990;48.174;9.782;2023-02-15T04:41:24;39.43;;;11.53;;
21657;SDS011;10990;48.174;9.782;2023-02-15T04:43:50;23.13;;;9.93;;
21657;SDS011;10990;48.174;9.782;2023-02-15T04:46:17;26.07;;;10.63;;
21657;SDS011;10990;48.174;9.782;2023-02-15T04:48:44;34.40;;;11.10;;
21657;SDS011;10990;48.174;9.782;2023-02-15T04:51:11;24.30;;;9.90;;
21657;SDS011;10990;48.174;9.782;2023-02-15T04:53:39;34.57;;;11.33;;
21657;SDS011;10990;48.174;9.782;2023-02-15T04:56:05;25.30;;;10.03;;
21657;SDS011;10990;48.174;9.782;2023-02-15T04:58:32;24.17;;;10.87;;
21657;SDS011;10990;48.174;9.782;2023-02-15T05:01:00;36.80;;;11.63;;
21657;SDS011;10990;48.174;9.782;2023-02-15T05:03:27;30.40;;;10.60;;
21657;SDS011;10990;48.174;9.782;2023-02-15T05:05:53;20.13;;;10.63;;
21657;SDS011;10990;48.174;9.782;2023-02-15T05:08:20;23.53;;;10.60;;
21657;SDS011;10990;48.174;9.782;2023-02-15T05:10:48;65.90;;;14.80;;
21657;SDS011;10990;48.174;9.782;2023-02-15T05:13:15;31.77;;;12.70;;
21657;SDS011;10990;48.174;9.782;2023-02-15T05:15:46;30.77;;;12.90;;
21657;SDS011;10990;48.174;9.782;2023-02-15T05:18:14;33.10;;;13.83;;
21657;SDS011;10990;48.174;9.782;2023-02-15T05:20:41;30.13;;;11.33;;
21657;SDS011;10990;48.174;9.782;2023-02-15T05:23:08;19.67;;;10.77;;
21657;SDS011;10990;48.174;9.782;2023-02-15T05:25:35;22.07;;;11.10;;
21657;SDS011;10990;48.174;9.782;2023-02-15T05:28:20;23.13;;;11.03;;
21657;SDS011;10990;48.174;9.782;2023-02-15T05:30:48;21.43;;;10.20;;
21657;SDS011;10990;48.174;9.782;2023-02-15T05:33:16;28.83;;;12.43;;
21657;SDS011;10990;48.174;9.782;2023-02-15T05:35:43;22.43;;;10.33;;
21657;SDS011;10990;48.174;9.782;2023-02-15T05:38:09;21.37;;;10.83;;
21657;SDS011;10990;48.174;9.782;2023-02-15T05:40:36;27.73;;;11.40;;
21657;SDS011;10990;48.174;9.782;2023-02-15T05:43:03;22.50;;;10.90;;
21657;SDS011;10990;48.174;9.782;2023-02-15T05:45:31;26.30;;;11.90;;
21657;SDS011;10990;48.174;9.782;2023-02-15T05:47:57;36.87;;;11.90;;
21657;SDS011;10990;48.174;9.782;2023-02-15T05:50:24;59.70;;;13.30;;
21657;SDS011;10990;48.174;9.782;2023-02-15T05:52:51;23.27;;;11.27;;
21657;SDS011;10990;48.174;9.782;2023-02-15T05:55:18;29.77;;;12.20;;
21657;SDS011;10990;48.174;9.782;2023-02-15T05:57:45;21.00;;;11.43;;
21657;SDS011;10990;48.174;9.782;2023-02-15T06:00:12;25.80;;;12.27;;
21657;SDS011;10990;48.174;9.782;2023-02-15T06:02:41;19.73;;;11.03;;
21657;SDS011;10990;48.174;9.782;2023-02-15T06:05:08;35.63;;;12.37;;
21657;SDS011;10990;48.174;9.782;2023-02-15T06:07:35;28.23;;;12.93;;
21657;SDS011;10990;48.174;9.782;2023-02-15T06:10:02;22.83;;;11.20;;
21657;SDS011;10990;48.174;9.782;2023-02-15T06:12:29;29.07;;;13.50;;
21657;SDS011;10990;48.174;9.782;2023-02-15T06:14:56;26.73;;;14.40;;
21657;SDS011;10990;48.174;9.782;2023-02-15T06:17:22;27.97;;;14.93;;
21657;SDS011;10990;48.174;9.782;2023-02-15T06:19:50;31.33;;;15.00;;
21657;SDS011;10990;48.174;9.782;2023-02-15T06:22:17;27.20;;;12.67;;
21657;SDS011;10990;48.174;9.782;2023-02-15T06:24:45;22.40;;;12.17;;
21657;SDS011;10990;48.174;9.782;2023-02-15T06:27:12;24.77;;;12.50;;
21657;SDS011;10990;48.174;9.782;2023-02-15T06:29:39;20.10;;;10.70;;
21657;SDS011;10990;48.174;9.782;2023-02-15T06:32:05;23.23;;;11.40;;
21657;SDS011;10990;48.174;9.782;2023-02-15T06:34:32;18.17;;;10.90;;
21657;SDS011;10990;48.174;9.782;2023-02-15T06:37:00;19.80;;;10.03;;
21657;SDS011;10990;48.174;9.782;2023-02-15T06:39:27;19.23;;;11.10;;
21657;SDS011;10990;48.174;9.782;2023-02-15T06:41:54;19.47;;;10.67;;
21657;SDS011;10990;48.174;9.782;2023-02-15T06:44:20;22.30;;;12.60;;
21657;SDS011;10990;48.174;9.782;2023-02-15T06:46:47;21.57;;;12.27;;
21657;SDS011;10990;48.174;9.782;2023-02-15T06:49:14;21.17;;;11.40;;
21657;SDS011;10990;48.174;9.782;2023-02-15T06:51:40;18.70;;;10.67;;
21657;SDS011;10990;48.174;9.782;2023-02-15T06:54:08;18.17;;;10.57;;
21657;SDS011;10990;48.174;9.782;2023-02-15T06:56:35;19.67;;;11.33;;
21657;SDS011;10990;48.174;9.782;2023-02-15T06:59:02;21.87;;;11.87;;
21657;SDS011;10990;48.174;9.782;2023-02-15T07:01:28;21.80;;;11.60;;
21657;SDS011;10990;48.174;9.782;2023-02-15T07:03:55;19.83;;;10.90;;
21657;SDS011;10990;48.174;9.782;2023-02-15T07:06:22;18.80;;;10.53;;
21657;SDS011;10990;48.174;9.782;2023-02-15T07:08:49;19.17;;;11.50;;
21657;SDS011;10990;48.174;9.782;2023-02-15T07:11:17;19.70;;;11.07;;
21657;SDS011;10990;48.174;9.782;2023-02-15T07:14:16;18.07;;;10.23;;
21657;SDS011;10990;48.174;9.782;2023-02-15T07:16:43;19.13;;;10.40;;
21657;SDS011;10990;48.174;9.782;2023-02-15T07:19:09;20.03;;;10.57;;
21657;SDS011;10990;48.174;9.782;2023-02-15T07:21:36;20.43;;;11.67;;
21657;SDS011;10990;48.174;9.782;2023-02-15T07:24:03;18.63;;;11.10;;
21657;SDS011;10990;48.174;9.782;2023-02-15T07:26:32;18.40;;;10.80;;
21657;SDS011;10990;48.174;9.782;2023-02-15T07:28:58;19.30;;;10.67;;
21657;SDS011;10990;48.174;9.782;2023-02-15T07:31:25;19.17;;;10.63;;
21657;SDS011;10990;48.174;9.782;2023-02-15T07:33:52;20.10;;;10.83;;
21657;SDS011;10990;48.174;9.782;2023-02-15T07:36:19;19.23;;;11.33;;
21657;SDS011;10990;48.174;9.782;2023-02-15T07:38:46;19.00;;;10.93;;
21657;SDS011;10990;48.174;9.782;2023-02-15T07:41:13;22.70;;;11.57;;
21657;SDS011;10990;48.174;9.782;2023-02-15T07:43:43;25.17;;;13.27;;
21657;SDS011;10990;48.174;9.782;2023-02-15T07:46:11;20.40;;;11.80;;
21657;SDS011;10990;48.174;9.782;2023-02-15T07:48:39;24.17;;;12.63;;
21657;SDS011;10990;48.174;9.782;2023-02-15T07:51:08;23.90;;;12.63;;
21657;SDS011;10990;48.174;9.782;2023-02-15T07:53:36;25.23;;;13.03;;
21657;SDS011;10990;48.174;9.782;2023-02-15T07:56:05;24.00;;;12.50;;
21657;SDS011;10990;48.174;9.782;2023-02-15T07:58:33;24.77;;;12.37;;
21657;SDS011;10990;48.174;9.782;2023-02-15T08:01:20;23.93;;;12.87;;
21657;SDS011;10990;48.174;9.782;2023-02-15T08:03:48;20.60;;;11.53;;
21657;SDS011;10990;48.174;9.782;2023-02-15T08:06:15;22.67;;;11.93;;
21657;SDS011;10990;48.174;9.782;2023-02-15T08:08:42;21.33;;;11.97;;
21657;SDS011;10990;48.174;9.782;2023-02-15T08:11:14;24.80;;;13.30;;
21657;SDS011;10990;48.174;9.782;2023-02-15T08:13:54;23.93;;;12.43;;
21657;SDS011;10990;48.174;9.782;2023-02-15T08:16:26;22.63;;;13.03;;
21657;SDS011;10990;48.174;9.782;2023-02-15T08:18:54;25.03;;;13.17;;
21657;SDS011;10990;48.174;9.782;2023-02-15T08:21:22;20.47;;;11.77;;
21657;SDS011;10990;48.174;9.782;2023-02-15T08:23:51;21.70;;;11.67;;
21657;SDS011;10990;48.174;9.782;2023-02-15T08:26:18;23.33;;;13.03;;
21657;SDS011;10990;48.174;9.782;2023-02-15T08:28:45;23.07;;;12.93;;
21657;SDS011;10990;48.174;9.782;2023-02-15T08:31:12;22.70;;;12.07;;
21657;SDS011;10990;48.174;9.782;2023-02-15T08:33:42;22.40;;;12.70;;
21657;SDS011;10990;48.174;9.782;2023-02-15T08:36:11;21.23;;;12.13;;
21657;SDS011;10990;48.174;9.782;2023-02-15T08:38:39;21.67;;;12.40;;
21657;SDS011;10990;48.174;9.782;2023-02-15T08:41:10;21.37;;;11.73;;
21657;SDS011;10990;48.174;9.782;2023-02-15T08:43:38;22.63;;;12.20;;
21657;SDS011;10990;48.174;9.782;2023-02-15T08:46:06;20.47;;;11.90;;
21657;SDS011;10990;48.174;9.782;2023-02-15T08:48:33;20.43;;;12.13;;
21657;SDS011;10990;48.174;9.782;2023-02-15T08:51:05;20.63;;;11.97;;
21657;SDS011;10990;48.174;9.782;2023-02-15T08:53:33;21.57;;;11.77;;
21657;SDS011;10990;48.174;9.782;2023-02-15T08:55:59;22.40;;;12.03;;
21657;SDS011;10990;48.174;9.782;2023-02-15T08:58:26;19.80;;;11.77;;
21657;SDS011;10990;48.174;9.782;2023-02-15T09:00:55;22.83;;;12.83;;
21657;SDS011;10990;48.174;9.782;2023-02-15T09:03:22;20.40;;;11.70;;
21657;SDS011;10990;48.174;9.782;2023-02-15T09:05:49;21.53;;;11.90;;
21657;SDS011;10990;48.174;9.782;2023-02-15T09:08:17;22.67;;;13.23;;
21657;SDS011;10990;48.174;9.782;2023-02-15T09:10:45;22.33;;;12.80;;
21657;SDS011;10990;48.174;9.782;2023-02-15T09:13:11;23.53;;;14.57;;
21657;SDS011;10990;48.174;9.782;2023-02-15T09:15:38;26.33;;;13.60;;
21657;SDS011;10990;48.174;9.782;2023-02-15T09:18:05;22.50;;;12.93;;
21657;SDS011;10990;48.174;9.782;2023-02-15T09:20:35;23.13;;;13.73;;
21657;SDS011;10990;48.174;9.782;2023-02-15T09:23:01;22.63;;;13.43;;
21657;SDS011;10990;48.174;9.782;2023-02-15T09:25:30;22.60;;;12.87;;
21657;SDS011;10990;48.174;9.782;2023-02-15T09:27:56;20.83;;;12.63;;
21657;SDS011;10990;48.174;9.782;2023-02-15T09:30:23;21.00;;;12.67;;
21657;SDS011;10990;48.174;9.782;2023-02-15T09:32:50;22.17;;;13.57;;
21657;SDS011;10990;48.174;9.782;2023-02-15T09:35:16;19.27;;;11.90;;
21657;SDS011;10990;48.174;9.782;2023-02-15T09:37:43;20.93;;;12.80;;
21657;SDS011;10990;48.174;9.782;2023-02-15T09:40:11;23.00;;;13.17;;
21657;SDS011;10990;48.174;9.782;2023-02-15T09:42:50;21.07;;;12.40;;
21657;SDS011;10990;48.174;9.782;2023-02-15T09:45:47;20.50;;;12.00;;
21657;SDS011;10990;48.174;9.782;2023-02-15T09:48:34;18.30;;;11.63;;
21657;SDS011;10990;48.174;9.782;2023-02-15T09:51:13;18.67;;;11.97;;
21657;SDS011;10990;48.174;9.782;2023-02-15T09:54:02;18.83;;;11.97;;
21657;SDS011;10990;48.174;9.782;2023-02-15T09:56:50;18.90;;;11.77;;
21657;SDS011;10990;48.174;9.782;2023-02-15T09:59:24;17.97;;;11.77;;
21657;SDS011;10990;48.174;9.782;2023-02-15T10:02:02;18.83;;;11.97;;
21657;SDS011;10990;48.174;9.782;2023-02-15T10:04:49;16.67;;;11.93;;
21657;SDS011;10990;48.174;9.782;2023-02-15T10:07:31;18.20;;;11.47;;
21657;SDS011;10990;48.174;9.782;2023-02-15T10:10:11;17.43;;;11.37;;
21657;SDS011;10990;48.174;9.782;2023-02-15T10:12:49;17.53;;;11.37;;
21657;SDS011;10990;48.174;9.782;2023-02-15T10:15:30;17.90;;;11.27;;
21657;SDS011;10990;48.174;9.782;2023-02-15T10:18:22;18.20;;;11.50;;
21657;SDS011;10990;48.174;9.782;2023-02-15T10:21:01;17.90;;;11.50;;
21657;SDS011;10990;48.174;9.782;2023-02-15T10:23:42;18.70;;;11.70;;
21657;SDS011;10990;48.174;9.782;2023-02-15T10:26:19;15.80;;;11.30;;
21657;SDS011;10990;48.174;9.782;2023-02-15T10:28:48;16.93;;;11.77;;
21657;SDS011;10990;48.174;9.782;2023-02-15T10:31:24;15.63;;;11.05;;
21657;SDS011;10990;48.174;9.782;2023-02-15T10:33:56;15.27;;;10.90;;
21657;SDS011;10990;48.174;9.782;2023-02-15T10:36:43;17.20;;;11.52;;
21657;SDS011;10990;48.174;9.782;2023-02-15T10:39:22;15.02;;;11.07;;
21657;SDS011;10990;48.174;9.782;2023-02-15T10:41:57;15.25;;;11.02;;
21657;SDS011;10990;48.174;9.782;2023-02-15T10:44:36;16.27;;;11.45;;
21657;SDS011;10990;48.174;9.782;2023-02-15T10:47:19;16.38;;;11.93;;
21657;SDS011;10990;48.174;9.782;2023-02-15T10:50:10;17.98;;;12.65;;
21657;SDS011;10990;48.174;9.782;2023-02-15T10:52:52;16.70;;;12.07;;
21657;SDS011;10990;48.174;9.782;2023-02-15T10:55:35;16.38;;;12.13;;
21657;SDS011;10990;48.174;9.782;2023-02-15T10:58:16;21.25;;;11.95;;
21657;SDS011;10990;48.174;9.782;2023-02-15T11:00:47;17.65;;;12.30;;
21657;SDS011;10990;48.174;9.782;2023-02-15T11:03:28;19.70;;;11.60;;
21657;SDS011;10990;48.174;9.782;2023-02-15T11:06:06;18.13;;;12.35;;
21657;SDS011;10990;48.174;9.782;2023-02-15T11:08:38;20.80;;;13.47;;
21657;SDS011;10990;48.174;9.782;2023-02-15T11:11:09;21.93;;;14.00;;
21657;SDS011;10990;48.174;9.782;2023-02-15T11:13:43;22.00;;;14.43;;
21657;SDS011;10990;48.174;9.782;2023-02-15T11:16:14;23.07;;;14.77;;
21657;SDS011;10990;48.174;9.782;2023-02-15T11:18:45;20.37;;;13.13;;
21657;SDS011;10990;48.174;9.782;2023-02-15T11:21:17;23.23;;;13.43;;
21657;SDS011;10990;48.174;9.782;2023-02-15T11:23:48;22.97;;;14.60;;
21657;SDS011;10990;48.174;9.782;2023-02-15T11:26:15;24.87;;;14.87;;
21657;SDS011;10990;48.174;9.782;2023-02-15T11:28:47;24.27;;;14.67;;
21657;SDS011;10990;48.174;9.782;2023-02-15T11:31:19;23.57;;;14.60;;
21657;SDS011;10990;48.174;9.782;2023-02-15T11:33:50;24.27;;;14.73;;
21657;SDS011;10990;48.174;9.782;2023-02-15T11:36:22;27.83;;;15.77;;
21657;SDS011;10990;48.174;9.782;2023-02-15T11:38:52;23.43;;;14.57;;
21657;SDS011;10990;48.174;9.782;2023-02-15T11:41:25;22.80;;;15.20;;
21657;SDS011;10990;48.174;9.782;2023-02-15T11:43:56;28.60;;;15.77;;
21657;SDS011;10990;48.174;9.782;2023-02-15T11:46:27;27.10;;;16.23;;
21657;SDS011;10990;48.174;9.782;2023-02-15T11:48:55;25.53;;;15.97;;
21657;SDS011;10990;48.174;9.782;2023-02-15T11:51:23;27.73;;;17.23;;
21657;SDS011;10990;48.174;9.782;2023-02-15T11:53:52;28.57;;;16.53;;
21657;SDS011;10990;48.174;9.782;2023-02-15T11:56:20;27.07;;;16.10;;
21657;SDS011;10990;48.174;9.782;2023-02-15T11:58:49;27.47;;;15.63;;
21657;SDS011;10990;48.174;9.782;2023-02-15T12:01:21;29.03;;;17.03;;
21657;SDS011;10990;48.174;9.782;2023-02-15T12:03:55;28.63;;;17.17;;
21657;SDS011;10990;48.174;9.782;2023-02-15T12:06:27;28.53;;;16.77;;
21657;SDS011;10990;48.174;9.782;2023-02-15T12:08:57;29.33;;;17.27;;
21657;SDS011;10990;48.174;9.782;2023-02-15T12:11:33;30.20;;;18.40;;
21657;SDS011;10990;48.174;9.782;2023-02-15T12:14:03;29.00;;;17.10;;
21657;SDS011;10990;48.174;9.782;2023-02-15T12:16:32;29.67;;;17.80;;
21657;SDS011;10990;48.174;9.782;2023-02-15T12:19:12;29.47;;;16.77;;
21657;SDS011;10990;48.174;9.782;2023-02-15T12:21:49;30.10;;;16.73;;
21657;SDS011;10990;48.174;9.782;2023-02-15T12:24:18;35.33;;;18.70;;
21657;SDS011;10990;48.174;9.782;2023-02-15T12:26:55;28.97;;;16.17;;
21657;SDS011;10990;48.174;9.782;2023-02-15T12:29:25;26.83;;;16.30;;
21657;SDS011;10990;48.174;9.782;2023-02-15T12:31:55;28.93;;;16.70;;
21657;SDS011;10990;48.174;9.782;2023-02-15T12:34:26;28.20;;;16.70;;
21657;SDS011;10990;48.174;9.782;2023-02-15T12:36:56;29.60;;;18.33;;
21657;SDS011;10990;48.174;9.782;2023-02-15T12:39:27;29.30;;;16.97;;
21657;SDS011;10990;48.174;9.782;2023-02-15T12:42:03;30.37;;;17.03;;
21657;SDS011;10990;48.174;9.782;2023-02-15T12:44:40;28.73;;;17.03;;
21657;SDS011;10990;48.174;9.782;2023-02-15T12:47:20;27.47;;;17.00;;
21657;SDS011;10990;48.174;9.782;2023-02-15T12:52:43;31.73;;;17.80;;
21657;SDS011;10990;48.174;9.782;2023-02-15T12:55:11;28.50;;;17.27;;
21657;SDS011;10990;48.174;9.782;2023-02-15T12:57:45;28.53;;;17.97;;
21657;SDS011;10990;48.174;9.782;2023-02-15T13:00:25;31.17;;;17.90;;
21657;SDS011;10990;48.174;9.782;2023-02-15T13:02:57;27.87;;;16.20;;
21657;SDS011;10990;48.174;9.782;2023-02-15T13:05:26;27.47;;;15.50;;
21657;SDS011;10990;48.174;9.782;2023-02-15T13:07:58;26.40;;;16.47;;
21657;SDS011;10990;48.174;9.782;2023-02-15T13:10:28;26.87;;;15.37;;
21657;SDS011;10990;48.174;9.782;2023-02-15T13:12:57;25.30;;;15.37;;
21657;SDS011;10990;48.174;9.782;2023-02-15T13:15:25;26.90;;;15.30;;
21657;SDS011;10990;48.174;9.782;2023-02-15T13:17:55;25.00;;;14.90;;
21657;SDS011;10990;48.174;9.782;2023-02-15T13:20:23;25.60;;;14.97;;
21657;SDS011;10990;48.174;9.782;2023-02-15T13:22:52;25.23;;;14.70;;
21657;SDS011;10990;48.174;9.782;2023-02-15T13:25:25;28.40;;;14.90;;
21657;SDS011;10990;48.174;9.782;2023-02-15T13:27:58;24.53;;;15.13;;
21657;SDS011;10990;48.174;9.782;2023-02-15T13:30:29;25.90;;;14.30;;
21657;SDS011;10990;48.174;9.782;2023-02-15T13:33:01;23.47;;;13.97;;
21657;SDS011;10990;48.174;9.782;2023-02-15T13:35:37;25.57;;;14.77;;
21657;SDS011;10990;48.174;9.782;2023-02-15T13:38:17;25.40;;;14.20;;
21657;SDS011;10990;48.174;9.782;2023-02-15T13:41:11;24.80;;;14.07;;
21657;SDS011;10990;48.174;9.782;2023-02-15T13:43:44;25.67;;;14.80;;
21657;SDS011;10990;48.174;9.782;2023-02-15T13:46:22;25.73;;;15.17;;
21657;SDS011;10990;48.174;9.782;2023-02-15T13:49:03;25.77;;;15.90;;
21657;SDS011;10990;48.174;9.782;2023-02-15T13:51:41;25.10;;;14.93;;
21657;SDS011;10990;48.174;9.782;2023-02-15T13:54:25;24.03;;;14.70;;
21657;SDS011;10990;48.174;9.782;2023-02-15T13:57:03;22.80;;;13.73;;
21657;SDS011;10990;48.174;9.782;2023-02-15T13:59:53;25.97;;;15.43;;
21657;SDS011;10990;48.174;9.782;2023-02-15T14:02:44;28.33;;;15.10;;
21657;SDS011;10990;48.174;9.782;2023-02-15T14:05:38;24.00;;;14.07;;
21657;SDS011;10990;48.174;9.782;2023-02-15T14:08:21;22.17;;;13.50;;
21657;SDS011;10990;48.174;9.782;2023-02-15T14:11:01;22.67;;;14.60;;
21657;SDS011;10990;48.174;9.782;2023-02-15T14:13:47;23.43;;;14.10;;
21657;SDS011;10990;48.174;9.782;2023-02-15T14:16:26;22.70;;;14.20;;
21657;SDS011;10990;48.174;9.782;2023-02-15T14:19:04;24.80;;;14.17;;
21657;SDS011;10990;48.174;9.782;2023-02-15T14:21:41;25.47;;;15.13;;
21657;SDS011;10990;48.174;9.782;2023-02-15T14:24:18;22.90;;;13.90;;
21657;SDS011;10990;48.174;9.782;2023-02-15T14:26:57;25.93;;;16.03;;
21657;SDS011;10990;48.174;9.782;2023-02-15T14:29:37;27.33;;;16.63;;
21657;SDS011;10990;48.174;9.782;2023-02-15T14:32:16;28.87;;;17.50;;
21657;SDS011;10990;48.174;9.782;2023-02-15T14:34:46;25.37;;;16.33;;
21657;SDS011;10990;48.174;9.782;2023-02-15T14:37:18;29.47;;;18.00;;
21657;SDS011;10990;48.174;9.782;2023-02-15T14:39:51;29.23;;;17.70;;
21657;SDS011;10990;48.174;9.782;2023-02-15T14:42:43;30.53;;;17.30;;
21657;SDS011;10990;48.174;9.782;2023-02-15T14:45:17;30.07;;;17.87;;
21657;SDS011;10990;48.174;9.782;2023-02-15T14:47:48;29.97;;;18.23;;
21657;SDS011;10990;48.174;9.782;2023-02-15T14:50:40;28.77;;;17.87;;
21657;SDS011;10990;48.174;9.782;2023-02-15T14:53:16;28.57;;;16.83;;
21657;SDS011;10990;48.174;9.782;2023-02-15T14:55:59;29.10;;;18.00;;